createdAt,value
2018-04-29T00:01:33.245Z,13.30
2018-04-29T00:04:01.761Z,13.12
2018-04-29T00:06:30.301Z,13.29
2018-04-29T00:08:59.317Z,13.20
2018-04-29T00:11:27.667Z,13.17
2018-04-29T00:13:56.897Z,12.89
2018-04-29T00:16:25.205Z,12.86
2018-04-29T00:18:53.467Z,12.83
2018-04-29T00:21:21.756Z,12.65
2018-04-29T00:23:50.059Z,12.86
2018-04-29T00:26:19.118Z,13.03
2018-04-29T00:28:47.459Z,13.03
2018-04-29T00:31:15.719Z,13.07
2018-04-29T00:33:44.018Z,12.94
2018-04-29T00:36:12.271Z,12.79
2018-04-29T00:38:40.637Z,12.83
2018-04-29T00:41:09.029Z,12.82
2018-04-29T00:43:37.349Z,12.91
2018-04-29T00:46:05.640Z,12.92
2018-04-29T00:48:33.976Z,12.85
2018-04-29T00:51:02.229Z,12.73
2018-04-29T00:53:30.492Z,12.80
2018-04-29T00:55:58.810Z,12.83
2018-04-29T00:58:27.159Z,12.81
2018-04-29T01:00:55.567Z,12.89
2018-04-29T01:03:23.835Z,12.78
2018-04-29T01:05:52.115Z,12.70
2018-04-29T01:08:20.378Z,12.73
2018-04-29T01:10:48.650Z,12.76
2018-04-29T01:13:16.937Z,12.79
2018-04-29T01:15:45.224Z,12.70
2018-04-29T01:18:13.797Z,12.73
2018-04-29T01:20:42.078Z,12.63
2018-04-29T01:23:10.447Z,12.77
2018-04-29T01:25:39.029Z,12.81
2018-04-29T01:28:07.310Z,12.67
2018-04-29T01:30:35.600Z,12.48
2018-04-29T01:33:03.894Z,12.49
2018-04-29T01:35:32.289Z,12.48
2018-04-29T01:38:01.347Z,12.50
2018-04-29T01:40:29.607Z,12.46
2018-04-29T01:42:57.877Z,12.62
2018-04-29T01:45:26.135Z,12.66
2018-04-29T01:47:54.414Z,12.57
2018-04-29T01:50:22.671Z,12.57
2018-04-29T01:52:50.961Z,12.60
2018-04-29T01:55:20.003Z,12.60
2018-04-29T01:57:48.265Z,12.60
2018-04-29T02:00:16.579Z,12.53
2018-04-29T02:02:45.629Z,12.47
2018-04-29T02:05:13.910Z,12.28
2018-04-29T02:07:42.285Z,12.38
2018-04-29T02:10:10.574Z,12.39
2018-04-29T02:12:38.905Z,12.42
2018-04-29T02:15:07.193Z,12.30
2018-04-29T02:17:35.464Z,12.27
2018-04-29T02:20:03.743Z,12.40
2018-04-29T02:22:32.016Z,12.65
2018-04-29T02:25:00.287Z,12.43
2018-04-29T02:27:28.656Z,12.38
2018-04-29T02:29:56.947Z,12.38
2018-04-29T02:32:25.217Z,12.33
2018-04-29T02:34:53.501Z,12.33
2018-04-29T02:37:21.791Z,12.28
2018-04-29T02:39:50.050Z,12.32
2018-04-29T02:42:18.325Z,12.42
2018-04-29T02:44:46.622Z,12.44
2018-04-29T02:47:14.939Z,12.28
2018-04-29T02:49:43.964Z,12.43
2018-04-29T02:52:12.235Z,12.38
2018-04-29T02:54:40.493Z,12.31
2018-04-29T02:57:08.795Z,12.32
2018-04-29T02:59:37.083Z,12.35
2018-04-29T03:02:05.358Z,12.36
2018-04-29T03:04:33.622Z,12.29
2018-04-29T03:07:01.897Z,12.28
2018-04-29T03:09:30.183Z,12.18
2018-04-29T03:11:58.441Z,12.16
2018-04-29T03:14:26.729Z,12.08
2018-04-29T03:16:54.993Z,12.23
2018-04-29T03:19:23.665Z,12.19
2018-04-29T03:21:51.951Z,12.22
2018-04-29T03:24:20.253Z,12.20
2018-04-29T03:26:50.034Z,12.21
2018-04-29T03:29:18.301Z,12.08
2018-04-29T03:31:46.578Z,11.86
2018-04-29T03:34:14.881Z,11.74
2018-04-29T03:36:43.238Z,11.89
2018-04-29T03:39:11.522Z,11.97
2018-04-29T03:41:39.795Z,11.70
2018-04-29T03:44:08.063Z,11.64
2018-04-29T03:46:36.355Z,11.44
2018-04-29T03:49:04.617Z,11.43
2018-04-29T03:51:32.898Z,11.64
2018-04-29T03:54:01.195Z,11.76
2018-04-29T03:56:29.694Z,11.86
2018-04-29T03:59:15.524Z,11.63
2018-04-29T04:02:01.542Z,11.40
2018-04-29T04:04:29.810Z,11.30
2018-04-29T04:06:58.103Z,11.62
2018-04-29T04:09:26.462Z,11.53
2018-04-29T04:11:54.740Z,11.55
2018-04-29T04:14:23.014Z,11.73
2018-04-29T04:16:51.306Z,11.82
2018-04-29T04:19:19.617Z,11.90
2018-04-29T04:21:48.030Z,11.70
2018-04-29T04:24:16.305Z,11.71
2018-04-29T04:26:44.582Z,11.70
2018-04-29T04:29:12.880Z,11.70
2018-04-29T04:31:41.153Z,11.85
2018-04-29T04:34:09.568Z,11.88
2018-04-29T04:36:38.509Z,11.88
2018-04-29T04:39:06.799Z,11.93
2018-04-29T04:41:35.070Z,11.88
2018-04-29T04:44:03.435Z,11.81
2018-04-29T04:46:31.924Z,11.48
2018-04-29T04:49:00.222Z,11.48
2018-04-29T04:51:28.496Z,11.41
2018-04-29T04:53:56.778Z,11.64
2018-04-29T04:56:25.070Z,11.59
2018-04-29T04:58:53.398Z,11.68
2018-04-29T05:01:21.667Z,11.70
2018-04-29T05:03:50.135Z,11.66
2018-04-29T05:06:18.425Z,11.80
2018-04-29T05:08:46.748Z,11.72
2018-04-29T05:11:15.038Z,11.75
2018-04-29T05:13:43.412Z,11.71
2018-04-29T05:16:11.626Z,11.86
2018-04-29T05:18:39.900Z,11.84
2018-04-29T05:21:08.204Z,11.89
2018-04-29T05:23:37.256Z,12.00
2018-04-29T05:26:05.687Z,12.11
2018-04-29T05:28:34.138Z,12.13
2018-04-29T05:31:02.452Z,12.27
2018-04-29T05:33:31.505Z,12.25
2018-04-29T05:35:59.851Z,12.18
2018-04-29T05:38:28.148Z,12.20
2018-04-29T05:40:56.459Z,12.22
2018-04-29T05:43:24.726Z,12.08
2018-04-29T05:45:53.067Z,12.03
2018-04-29T05:48:21.318Z,12.08
2018-04-29T05:50:49.599Z,12.03
2018-04-29T05:53:17.992Z,11.96
2018-04-29T05:55:46.273Z,12.10
2018-04-29T05:58:14.552Z,12.02
2018-04-29T06:00:42.842Z,12.00
2018-04-29T06:03:11.117Z,12.19
2018-04-29T06:05:40.206Z,12.36
2018-04-29T06:08:08.522Z,12.47
2018-04-29T06:10:37.690Z,12.62
2018-04-29T06:13:07.612Z,12.79
2018-04-29T06:15:35.894Z,12.81
2018-04-29T06:18:04.452Z,12.74
2018-04-29T06:20:32.797Z,12.80
2018-04-29T06:23:01.065Z,12.85
2018-04-29T06:25:29.363Z,12.79
2018-04-29T06:27:57.642Z,12.82
2018-04-29T06:30:25.930Z,13.01
2018-04-29T06:32:54.240Z,13.11
2018-04-29T06:35:23.304Z,13.18
2018-04-29T06:37:51.592Z,13.15
2018-04-29T06:40:19.854Z,13.53
2018-04-29T06:42:48.118Z,13.57
2018-04-29T06:45:16.395Z,13.62
2018-04-29T06:47:44.661Z,13.65
2018-04-29T06:50:12.979Z,13.63
2018-04-29T06:52:41.708Z,13.49
2018-04-29T06:55:10.034Z,13.54
2018-04-29T06:57:38.468Z,13.77
2018-04-29T07:00:06.745Z,13.78
2018-04-29T07:02:35.112Z,14.04
2018-04-29T07:05:03.410Z,14.05
2018-04-29T07:07:31.710Z,14.27
2018-04-29T07:09:59.995Z,14.34
2018-04-29T07:12:28.335Z,14.30
2018-04-29T07:14:56.628Z,14.35
2018-04-29T07:17:25.039Z,14.54
2018-04-29T07:19:53.372Z,14.57
2018-04-29T07:22:21.634Z,14.76
2018-04-29T07:24:50.005Z,14.82
2018-04-29T07:27:18.296Z,14.89
2018-04-29T07:29:46.603Z,14.97
2018-04-29T07:32:14.891Z,15.02
2018-04-29T07:34:44.331Z,15.02
2018-04-29T07:37:12.669Z,15.06
2018-04-29T07:39:41.804Z,15.19
2018-04-29T07:42:10.094Z,15.18
2018-04-29T07:44:38.398Z,15.24
2018-04-29T07:47:06.690Z,15.47
2018-04-29T07:49:35.028Z,15.41
2018-04-29T07:52:03.325Z,15.56
2018-04-29T07:54:31.588Z,15.85
2018-04-29T07:56:59.878Z,15.97
2018-04-29T07:59:28.225Z,16.17
2018-04-29T08:01:56.513Z,15.94
2018-04-29T08:04:24.859Z,15.96
2018-04-29T08:06:53.172Z,16.20
2018-04-29T08:09:21.485Z,16.15
2018-04-29T08:11:50.602Z,15.92
2018-04-29T08:14:18.952Z,15.99
2018-04-29T08:16:47.307Z,16.05
2018-04-29T08:19:15.627Z,16.20
2018-04-29T08:21:44.056Z,16.21
2018-04-29T08:24:12.555Z,16.52
2018-04-29T08:26:41.744Z,16.74
2018-04-29T08:29:10.008Z,16.88
2018-04-29T08:31:38.302Z,17.00
2018-04-29T08:34:07.449Z,16.98
2018-04-29T08:36:35.753Z,17.14
2018-04-29T08:39:05.533Z,17.30
2018-04-29T08:41:33.837Z,17.43
2018-04-29T08:44:02.133Z,17.65
2018-04-29T08:46:30.416Z,17.77
2018-04-29T08:48:59.483Z,18.02
2018-04-29T08:51:27.853Z,18.11
2018-04-29T08:53:56.185Z,18.09
2018-04-29T08:56:24.619Z,18.29
2018-04-29T08:58:53.475Z,18.39
2018-04-29T09:01:21.745Z,18.46
2018-04-29T09:03:50.057Z,18.51
2018-04-29T09:06:18.325Z,18.33
2018-04-29T09:08:46.615Z,18.62
2018-04-29T09:11:15.031Z,18.48
2018-04-29T09:13:43.330Z,18.82
2018-04-29T09:16:11.622Z,18.96
2018-04-29T09:18:39.936Z,18.90
2018-04-29T09:21:09.182Z,19.24
2018-04-29T09:23:37.468Z,19.07
2018-04-29T09:26:05.758Z,19.32
2018-04-29T09:28:34.079Z,19.92
2018-04-29T09:31:03.103Z,20.15
2018-04-29T09:33:31.378Z,20.11
2018-04-29T09:35:59.657Z,20.37
2018-04-29T09:38:27.934Z,20.64
2018-04-29T09:40:56.805Z,20.68
2018-04-29T09:43:25.121Z,21.22
2018-04-29T09:45:53.384Z,21.30
2018-04-29T09:48:21.699Z,21.63
2018-04-29T09:50:50.073Z,21.73
2018-04-29T09:53:19.200Z,21.69
2018-04-29T09:55:47.604Z,21.94
2018-04-29T09:58:15.961Z,21.95
2018-04-29T10:00:50.146Z,22.30
2018-04-29T10:03:20.006Z,22.58
2018-04-29T10:05:48.319Z,22.70
2018-04-29T10:08:17.443Z,22.84
2018-04-29T10:10:45.728Z,23.29
2018-04-29T10:13:14.039Z,23.26
2018-04-29T10:15:42.351Z,23.63
2018-04-29T10:18:11.486Z,22.96
2018-04-29T10:20:39.786Z,24.02
2018-04-29T10:23:08.058Z,23.44
2018-04-29T10:25:37.106Z,23.93
2018-04-29T10:28:05.391Z,24.31
2018-04-29T10:30:33.713Z,24.62
2018-04-29T10:33:01.992Z,24.98
2018-04-29T10:35:30.531Z,25.01
2018-04-29T10:37:59.024Z,25.75
2018-04-29T10:40:27.686Z,26.22
2018-04-29T10:42:56.017Z,26.14
2018-04-29T10:45:24.347Z,26.95
2018-04-29T10:47:52.839Z,27.58
2018-04-29T10:50:21.111Z,27.92
2018-04-29T10:52:49.484Z,27.30
2018-04-29T10:55:17.771Z,26.87
2018-04-29T10:57:46.071Z,27.19
2018-04-29T11:00:19.490Z,28.05
2018-04-29T11:02:48.719Z,28.90
2018-04-29T11:05:17.008Z,28.91
2018-04-29T11:07:45.383Z,29.15
2018-04-29T11:10:13.659Z,29.53
2018-04-29T11:12:41.945Z,28.83
2018-04-29T11:15:10.316Z,28.85
2018-04-29T11:17:38.791Z,28.55
2018-04-29T11:20:07.234Z,29.46
2018-04-29T11:22:36.275Z,29.74
2018-04-29T11:25:04.967Z,29.62
2018-04-29T11:27:33.226Z,29.10
2018-04-29T11:30:01.597Z,28.86
2018-04-29T11:32:29.877Z,29.77
2018-04-29T11:34:58.266Z,30.43
2018-04-29T11:37:26.542Z,30.77
2018-04-29T11:39:54.842Z,30.47
2018-04-29T11:42:23.113Z,31.10
2018-04-29T11:44:51.462Z,31.24
2018-04-29T11:47:19.778Z,31.48
2018-04-29T11:49:48.821Z,31.01
2018-04-29T11:52:17.151Z,30.60
2018-04-29T11:54:45.393Z,31.39
2018-04-29T11:57:13.870Z,30.38
2018-04-29T11:59:42.147Z,31.22
2018-04-29T12:02:10.457Z,30.11
2018-04-29T12:04:39.495Z,30.11
2018-04-29T12:07:08.101Z,30.73
2018-04-29T12:09:36.413Z,31.17
2018-04-29T12:12:05.564Z,30.80
2018-04-29T12:14:33.962Z,30.29
2018-04-29T12:17:02.166Z,30.97
2018-04-29T12:19:31.271Z,30.17
2018-04-29T12:21:59.541Z,30.96
2018-04-29T12:24:28.915Z,31.24
2018-04-29T12:26:57.159Z,30.14
2018-04-29T12:29:25.476Z,31.19
2018-04-29T12:31:54.510Z,31.53
2018-04-29T12:34:22.793Z,30.53
2018-04-29T12:36:51.065Z,31.52
2018-04-29T12:39:19.357Z,30.92
2018-04-29T12:41:47.741Z,30.57
2018-04-29T12:44:16.045Z,30.17
2018-04-29T12:46:44.441Z,29.89
2018-04-29T12:49:13.536Z,29.54
2018-04-29T12:51:41.856Z,28.92
2018-04-29T12:54:10.365Z,28.96
2018-04-29T12:56:38.657Z,28.70
2018-04-29T12:59:07.895Z,28.38
2018-04-29T13:01:36.183Z,28.16
2018-04-29T13:04:04.448Z,27.78
2018-04-29T13:06:32.767Z,27.31
2018-04-29T13:09:01.045Z,27.71
2018-04-29T13:11:29.503Z,27.46
2018-04-29T13:13:57.780Z,27.05
2018-04-29T13:16:26.074Z,26.79
2018-04-29T13:18:54.343Z,26.82
2018-04-29T13:21:22.735Z,26.60
2018-04-29T13:23:51.824Z,26.53
2018-04-29T13:26:20.926Z,26.71
2018-04-29T13:28:49.989Z,26.89
2018-04-29T13:31:18.229Z,26.90
2018-04-29T13:33:46.532Z,26.85
2018-04-29T13:36:15.142Z,26.76
2018-04-29T13:38:44.206Z,26.78
2018-04-29T13:41:12.474Z,26.89
2018-04-29T13:43:40.800Z,26.95
2018-04-29T13:46:09.836Z,26.72
2018-04-29T13:48:38.156Z,26.65
2018-04-29T13:51:06.437Z,26.84
2018-04-29T13:53:35.479Z,26.66
2018-04-29T13:56:03.852Z,26.83
2018-04-29T13:58:32.133Z,26.69
2018-04-29T14:01:00.429Z,26.66
2018-04-29T14:03:28.717Z,26.70
2018-04-29T14:05:56.981Z,26.87
2018-04-29T14:08:25.335Z,27.12
2018-04-29T14:10:53.772Z,27.41
2018-04-29T14:13:22.159Z,27.44
2018-04-29T14:15:50.564Z,27.35
2018-04-29T14:18:19.272Z,27.00
2018-04-29T14:20:47.652Z,26.97
2018-04-29T14:23:15.937Z,26.86
2018-04-29T14:25:44.257Z,27.01
2018-04-29T14:28:12.569Z,27.04
2018-04-29T14:30:40.853Z,27.02
2018-04-29T14:33:09.209Z,27.38
2018-04-29T14:35:37.520Z,27.28
2018-04-29T14:38:05.962Z,27.33
2018-04-29T14:40:34.270Z,27.45
2018-04-29T14:43:02.638Z,27.36
2018-04-29T14:45:30.914Z,27.10
2018-04-29T14:47:59.479Z,27.15
2018-04-29T14:50:27.767Z,27.01
2018-04-29T14:52:56.065Z,26.87
2018-04-29T14:55:24.352Z,26.78
2018-04-29T14:57:53.403Z,26.76
2018-04-29T15:00:21.972Z,26.67
2018-04-29T15:02:50.277Z,26.81
2018-04-29T15:05:18.848Z,26.93
2018-04-29T15:07:47.138Z,26.90
2018-04-29T15:10:15.453Z,26.88
2018-04-29T15:12:43.754Z,27.24
2018-04-29T15:15:12.115Z,27.37
2018-04-29T15:17:40.361Z,27.41
2018-04-29T15:20:09.517Z,27.56
2018-04-29T15:22:37.893Z,27.65
2018-04-29T15:25:06.191Z,27.33
2018-04-29T15:27:34.537Z,27.23
2018-04-29T15:30:02.881Z,27.01
2018-04-29T15:32:31.390Z,27.12
2018-04-29T15:34:59.656Z,26.91
2018-04-29T15:37:27.937Z,26.76
2018-04-29T15:39:56.229Z,26.75
2018-04-29T15:42:24.772Z,26.67
2018-04-29T15:44:53.079Z,26.79
2018-04-29T15:47:21.359Z,26.76
2018-04-29T15:49:49.642Z,26.49
2018-04-29T15:52:17.937Z,26.31
2018-04-29T15:54:46.259Z,26.64
2018-04-29T15:57:19.502Z,26.82
2018-04-29T15:59:47.934Z,27.15
2018-04-29T16:02:16.231Z,27.42
2018-04-29T16:04:44.506Z,27.28
2018-04-29T16:07:12.808Z,27.18
2018-04-29T16:09:41.092Z,27.00
2018-04-29T16:12:09.353Z,26.87
2018-04-29T16:14:37.673Z,26.71
2018-04-29T16:17:06.711Z,26.59
2018-04-29T16:19:35.082Z,26.35
2018-04-29T16:22:03.420Z,26.44
2018-04-29T16:24:31.688Z,26.46
2018-04-29T16:27:00.726Z,26.37
2018-04-29T16:29:29.200Z,26.38
2018-04-29T16:31:57.469Z,26.41
2018-04-29T16:34:25.789Z,26.49
2018-04-29T16:36:54.108Z,26.27
2018-04-29T16:39:22.406Z,26.40
2018-04-29T16:41:50.830Z,26.54
2018-04-29T16:44:19.328Z,26.38
2018-04-29T16:46:47.834Z,26.17
2018-04-29T16:49:16.129Z,25.98
2018-04-29T16:51:44.453Z,26.02
2018-04-29T16:54:12.821Z,25.93
2018-04-29T16:56:41.899Z,25.85
2018-04-29T16:59:10.150Z,26.13
2018-04-29T17:01:38.414Z,25.85
2018-04-29T17:04:06.686Z,25.63
2018-04-29T17:06:34.966Z,25.87
2018-04-29T17:09:03.258Z,25.71
2018-04-29T17:11:31.607Z,25.63
2018-04-29T17:13:59.920Z,25.81
2018-04-29T17:16:28.177Z,25.55
2018-04-29T17:18:56.485Z,25.63
2018-04-29T17:21:24.792Z,25.40
2018-04-29T17:23:53.111Z,25.34
2018-04-29T17:26:21.382Z,25.30
2018-04-29T17:28:49.822Z,25.13
2018-04-29T17:31:18.136Z,25.33
2018-04-29T17:33:46.422Z,25.28
2018-04-29T17:36:14.705Z,25.09
2018-04-29T17:38:43.025Z,25.05
2018-04-29T17:41:11.313Z,25.22
2018-04-29T17:43:39.870Z,25.22
2018-04-29T17:46:08.950Z,25.26
2018-04-29T17:48:38.018Z,25.02
2018-04-29T17:51:06.748Z,25.22
2018-04-29T17:53:36.118Z,25.30
2018-04-29T17:56:04.489Z,25.21
2018-04-29T17:58:32.919Z,25.01
2018-04-29T18:01:01.176Z,25.01
2018-04-29T18:03:30.402Z,24.96
2018-04-29T18:05:59.061Z,25.09
2018-04-29T18:08:27.641Z,24.96
2018-04-29T18:10:56.946Z,25.00
2018-04-29T18:13:25.305Z,25.12
2018-04-29T18:15:53.643Z,24.93
2018-04-29T18:18:22.067Z,24.94
2018-04-29T18:20:50.899Z,24.99
2018-04-29T18:23:20.417Z,24.94
2018-04-29T18:25:49.314Z,25.00
2018-04-29T18:28:17.995Z,24.83
2018-04-29T18:30:52.412Z,24.74
2018-04-29T18:33:20.969Z,24.60
2018-04-29T18:35:49.803Z,24.71
2018-04-29T18:38:18.541Z,24.48
2018-04-29T18:40:47.015Z,24.63
2018-04-29T18:43:15.682Z,24.46
2018-04-29T18:45:44.630Z,24.57
2018-04-29T18:48:13.629Z,24.53
2018-04-29T18:50:42.565Z,24.51
2018-04-29T18:53:16.302Z,24.47
2018-04-29T18:55:46.137Z,24.60
2018-04-29T18:58:16.121Z,24.46
2018-04-29T19:00:50.312Z,24.32
2018-04-29T19:03:19.221Z,24.22
2018-04-29T19:05:48.144Z,24.26
2018-04-29T19:08:17.528Z,24.16
2018-04-29T19:10:46.705Z,23.99
2018-04-29T19:13:15.599Z,24.03
2018-04-29T19:15:45.234Z,24.04
2018-04-29T19:18:13.737Z,23.93
2018-04-29T19:20:43.138Z,23.90
2018-04-29T19:23:11.662Z,23.82
2018-04-29T19:25:40.367Z,23.76
2018-04-29T19:28:12.763Z,23.95
2018-04-29T19:30:42.513Z,24.14
2018-04-29T19:33:10.911Z,24.25
2018-04-29T19:35:39.588Z,24.28
2018-04-29T19:38:07.967Z,24.12
2018-04-29T19:40:36.538Z,24.28
2018-04-29T19:43:05.094Z,24.35
2018-04-29T19:45:33.716Z,24.35
2018-04-29T19:48:02.084Z,24.43
2018-04-29T19:50:31.108Z,24.26
2018-04-29T19:53:00.470Z,24.10
2018-04-29T19:55:30.113Z,24.06
2018-04-29T19:57:59.181Z,23.96
2018-04-29T20:00:27.528Z,23.92
2018-04-29T20:02:56.143Z,24.12
2018-04-29T20:05:25.293Z,24.28
2018-04-29T20:07:54.365Z,24.25
2018-04-29T20:10:24.146Z,24.19
2018-04-29T20:12:53.225Z,24.27
2018-04-29T20:15:21.506Z,24.21
2018-04-29T20:17:50.231Z,24.29
2018-04-29T20:20:18.755Z,24.35
2018-04-29T20:22:47.329Z,24.18
2018-04-29T20:25:16.374Z,24.00
2018-04-29T20:27:44.678Z,24.01
2018-04-29T20:30:12.968Z,24.14
2018-04-29T20:32:49.310Z,24.21
2018-04-29T20:35:17.643Z,24.06
2018-04-29T20:37:46.823Z,24.11
2018-04-29T20:40:16.369Z,24.11
2018-04-29T20:42:46.194Z,24.06
2018-04-29T20:45:14.522Z,24.11
2018-04-29T20:47:42.817Z,24.14
2018-04-29T20:50:11.292Z,24.01
2018-04-29T20:52:39.608Z,23.86
2018-04-29T20:55:07.951Z,23.71
2018-04-29T20:57:36.216Z,23.59
2018-04-29T21:00:04.490Z,23.45
2018-04-29T21:02:32.885Z,23.26
2018-04-29T21:05:01.157Z,23.35
2018-04-29T21:07:29.505Z,23.28
2018-04-29T21:09:58.564Z,23.12
2018-04-29T21:12:26.850Z,23.08
2018-04-29T21:14:55.899Z,23.02
2018-04-29T21:17:24.252Z,22.91
2018-04-29T21:19:52.487Z,22.98
2018-04-29T21:22:20.860Z,23.02
2018-04-29T21:24:49.081Z,22.93
2018-04-29T21:27:17.489Z,22.79
2018-04-29T21:29:45.774Z,22.80
2018-04-29T21:32:14.077Z,22.76
2018-04-29T21:34:43.131Z,22.88
2018-04-29T21:37:11.413Z,22.87
2018-04-29T21:42:14.289Z,22.69
2018-04-29T21:44:42.548Z,22.67
2018-04-29T21:47:10.956Z,22.63
2018-04-29T21:49:39.216Z,22.64
2018-04-29T21:52:07.504Z,22.61
2018-04-29T21:54:35.776Z,22.68
2018-04-29T21:57:04.053Z,22.65
2018-04-29T21:59:32.309Z,22.43
2018-04-29T22:02:00.600Z,22.45
2018-04-29T22:04:28.917Z,22.50
2018-04-29T22:06:58.245Z,22.41
2018-04-29T22:09:26.564Z,22.49
2018-04-29T22:11:54.846Z,22.41
2018-04-29T22:14:23.214Z,22.39
2018-04-29T22:16:51.498Z,22.33
2018-04-29T22:19:19.851Z,22.39
2018-04-29T22:21:48.076Z,22.44
2018-04-29T22:24:17.149Z,22.36
2018-04-29T22:26:45.423Z,22.43
2018-04-29T22:29:13.865Z,22.61
2018-04-29T22:31:42.142Z,22.53
2018-04-29T22:34:10.390Z,22.46
2018-04-29T22:36:38.669Z,22.47
2018-04-29T22:39:06.938Z,22.35
2018-04-29T22:41:35.975Z,22.38
2018-04-29T22:44:04.282Z,22.32
2018-04-29T22:46:32.763Z,22.32
2018-04-29T22:49:01.502Z,22.24
2018-04-29T22:51:29.767Z,22.20
2018-04-29T22:53:58.077Z,22.55
2018-04-29T22:56:26.351Z,22.92
2018-04-29T22:58:54.664Z,22.87
2018-04-29T23:01:23.678Z,22.30
2018-04-29T23:03:51.993Z,21.88
2018-04-29T23:06:20.321Z,21.42
2018-04-29T23:08:48.706Z,21.20
2018-04-29T23:11:17.002Z,20.84
2018-04-29T23:13:45.295Z,20.60
2018-04-29T23:16:13.612Z,20.30
2018-04-29T23:18:42.643Z,20.00
2018-04-29T23:21:10.912Z,19.73
2018-04-29T23:23:39.181Z,19.45
2018-04-29T23:26:07.474Z,19.24
2018-04-29T23:28:35.741Z,19.15
2018-04-29T23:31:04.397Z,19.05
2018-04-29T23:33:33.415Z,18.91
2018-04-29T23:36:01.681Z,18.78
2018-04-29T23:38:29.946Z,18.51
2018-04-29T23:40:58.270Z,18.62
2018-04-29T23:43:26.528Z,18.43
2018-04-29T23:45:54.809Z,18.44
2018-04-29T23:48:23.088Z,18.36
2018-04-29T23:50:51.446Z,18.34
2018-04-29T23:53:19.739Z,18.14
2018-04-29T23:55:48.006Z,18.17
2018-04-29T23:58:16.307Z,18.14
